Time;durP1;ratioP1;P1;durP2;ratioP2;P2;SDS_P1;SDS_P2;PMS_P1;PMS_P2;Temp;Humidity;BMP_temperature;BMP_pressure;BME280_temperature;BME280_humidity;BME280_pressure;Samples;Min_cycle;Max_cycle;Signal;HPM_P1;HPM_P2
2023/08/26 00:00:25;;;;;;;14.10;10.20;;;16.50;99.90;;;;;;5101486;28;20039;-59
2023/08/26 00:02:51;;;;;;;14.32;9.30;;;16.40;99.90;;;;;;5099872;28;20550;-57
2023/08/26 00:05:16;;;;;;;13.15;9.50;;;16.20;99.90;;;;;;5100125;28;20032;-57
2023/08/26 00:07:42;;;;;;;13.70;9.13;;;16.30;99.90;;;;;;5101068;28;20139;-62
2023/08/26 00:10:08;;;;;;;14.65;9.85;;;16.20;99.90;;;;;;5099924;28;20104;-57
2023/08/26 00:12:33;;;;;;;14.73;9.30;;;16.00;99.90;;;;;;5101203;28;20040;-57
2023/08/26 00:14:59;;;;;;;14.18;10.00;;;16.00;99.90;;;;;;5100233;28;20052;-57
2023/08/26 00:17:25;;;;;;;14.05;9.02;;;16.00;99.90;;;;;;5101203;28;20048;-57
2023/08/26 00:19:50;;;;;;;13.85;9.55;;;16.00;99.90;;;;;;5100787;28;20042;-57
2023/08/26 00:22:17;;;;;;;14.10;9.38;;;15.90;99.90;;;;;;5099959;28;20520;-57
2023/08/26 00:24:43;;;;;;;17.08;10.77;;;16.00;99.90;;;;;;5100906;28;20036;-57
2023/08/26 00:27:09;;;;;;;11.95;8.82;;;15.80;99.90;;;;;;5099576;28;20036;-58
2023/08/26 00:29:35;;;;;;;12.90;9.40;;;15.80;99.90;;;;;;5101078;28;20051;-56
2023/08/26 00:32:01;;;;;;;13.27;10.45;;;15.70;99.90;;;;;;5099634;28;20036;-56
2023/08/26 00:34:27;;;;;;;14.18;9.85;;;15.80;99.90;;;;;;5100755;28;20044;-56
2023/08/26 00:36:52;;;;;;;12.57;9.38;;;15.60;99.90;;;;;;5100004;28;20047;-57
2023/08/26 00:39:18;;;;;;;11.88;8.48;;;15.70;99.90;;;;;;5100119;28;20514;-57
2023/08/26 00:41:44;;;;;;;12.73;8.63;;;15.60;99.90;;;;;;5100506;28;20414;-58
2023/08/26 00:44:09;;;;;;;11.75;8.10;;;15.60;99.90;;;;;;5099618;28;20052;-57
2023/08/26 00:46:35;;;;;;;13.30;9.07;;;15.60;99.90;;;;;;5100366;28;20115;-57
2023/08/26 00:49:01;;;;;;;12.00;8.52;;;15.50;99.90;;;;;;5099107;28;20048;-57
2023/08/26 00:51:28;;;;;;;11.75;8.50;;;15.60;99.90;;;;;;5100608;28;20043;-56
2023/08/26 00:53:54;;;;;;;13.07;8.50;;;15.60;99.90;;;;;;5099890;28;20047;-56
2023/08/26 00:56:21;;;;;;;13.65;7.63;;;15.50;99.90;;;;;;5113873;28;20514;-57
2023/08/26 00:58:47;;;;;;;10.85;7.28;;;15.50;99.90;;;;;;5120093;28;20040;-56
2023/08/26 01:01:13;;;;;;;14.40;7.57;;;15.70;99.90;;;;;;5119296;28;20048;-56
2023/08/26 01:03:39;;;;;;;13.77;7.43;;;15.60;99.90;;;;;;5120668;27;20073;-57
2023/08/26 01:06:05;;;;;;;11.15;7.25;;;15.60;99.90;;;;;;5119227;28;20047;-56
2023/08/26 01:08:31;;;;;;;12.60;7.60;;;15.70;99.90;;;;;;5118954;28;20063;-57
2023/08/26 01:11:07;;;;;;;12.30;7.45;;;15.70;99.90;;;;;;5119877;28;20039;-56
2023/08/26 01:13:55;;;;;;;9.75;6.93;;;15.70;99.90;;;;;;5119857;28;20193;-57
2023/08/26 01:16:23;;;;;;;11.32;6.95;;;15.70;99.90;;;;;;5116137;28;20055;-56
2023/08/26 01:18:50;;;;;;;11.95;6.93;;;15.70;99.90;;;;;;5098393;28;20047;-57
2023/08/26 01:21:19;;;;;;;10.27;6.97;;;15.60;99.90;;;;;;5100181;28;20051;-57
2023/08/26 01:23:46;;;;;;;10.73;6.50;;;15.60;99.90;;;;;;5098986;28;20051;-56
2023/08/26 01:26:12;;;;;;;8.90;6.35;;;15.50;99.90;;;;;;5099586;28;20051;-57
2023/08/26 01:28:38;;;;;;;11.50;7.10;;;15.40;99.90;;;;;;5099552;28;20040;-57
2023/08/26 01:31:11;;;;;;;10.02;5.82;;;15.50;99.90;;;;;;5098519;28;20203;-58
2023/08/26 01:33:46;;;;;;;10.65;6.13;;;15.40;99.90;;;;;;5099664;28;20044;-58
2023/08/26 01:36:19;;;;;;;9.60;5.97;;;15.40;99.90;;;;;;5098614;28;20109;-57
2023/08/26 01:38:46;;;;;;;10.73;6.20;;;15.50;99.90;;;;;;5099827;28;20036;-57
2023/08/26 01:41:17;;;;;;;10.48;6.18;;;15.40;99.90;;;;;;5099040;28;20047;-57
2023/08/26 01:43:43;;;;;;;9.90;5.43;;;15.40;99.90;;;;;;5098395;28;20036;-56
2023/08/26 01:46:08;;;;;;;12.73;5.88;;;15.50;99.90;;;;;;5099416;28;20057;-57
2023/08/26 01:48:34;;;;;;;9.35;6.13;;;15.50;99.90;;;;;;5097937;28;20048;-57
2023/08/26 01:51:00;;;;;;;9.63;5.32;;;15.40;99.90;;;;;;5099877;28;20039;-58
2023/08/26 01:53:25;;;;;;;9.85;5.93;;;15.30;99.90;;;;;;5098219;28;20044;-56
2023/08/26 01:55:51;;;;;;;9.90;5.80;;;15.40;99.90;;;;;;5109422;28;20454;-56
2023/08/26 01:58:17;;;;;;;8.82;5.30;;;15.30;99.90;;;;;;5118943;28;20035;-56
2023/08/26 02:00:42;;;;;;;9.45;5.40;;;15.30;99.90;;;;;;5119049;28;20043;-57
2023/08/26 02:03:08;;;;;;;9.43;5.90;;;15.30;99.90;;;;;;5119504;28;20058;-56
2023/08/26 02:05:34;;;;;;;8.80;5.15;;;15.20;99.90;;;;;;5118541;28;20040;-56
2023/08/26 02:07:59;;;;;;;8.63;5.43;;;15.30;99.90;;;;;;5119395;28;20118;-57
2023/08/26 02:10:25;;;;;;;9.85;5.00;;;15.40;99.90;;;;;;5119895;28;20047;-57
2023/08/26 02:12:51;;;;;;;13.65;5.68;;;15.40;99.90;;;;;;5123591;27;20526;-57
2023/08/26 02:15:16;;;;;;;10.02;5.88;;;15.40;99.90;;;;;;5123107;28;20054;-56
2023/08/26 02:17:42;;;;;;;9.32;5.47;;;15.30;99.90;;;;;;5123169;28;20063;-57
2023/08/26 02:20:09;;;;;;;10.88;5.60;;;15.30;99.90;;;;;;5123302;28;20047;-56
2023/08/26 02:22:35;;;;;;;9.13;5.38;;;15.20;99.90;;;;;;5122328;28;20048;-57
2023/08/26 02:25:00;;;;;;;13.65;6.40;;;15.20;99.90;;;;;;5123602;28;20855;-57
2023/08/26 02:27:26;;;;;;;9.52;5.60;;;15.20;99.90;;;;;;5122286;28;20486;-56
2023/08/26 02:29:52;;;;;;;8.38;5.25;;;15.20;99.90;;;;;;5124091;28;20042;-57
2023/08/26 02:32:17;;;;;;;8.48;5.75;;;15.10;99.90;;;;;;5122924;28;20113;-57
2023/08/26 02:34:44;;;;;;;8.90;5.72;;;15.10;99.90;;;;;;5123158;28;20051;-56
2023/08/26 02:37:09;;;;;;;9.60;5.80;;;15.10;99.90;;;;;;5123406;28;20058;-56
2023/08/26 02:39:35;;;;;;;10.38;6.22;;;15.10;99.90;;;;;;5122320;28;20514;-57
2023/08/26 02:42:00;;;;;;;9.55;5.85;;;15.00;99.90;;;;;;5123020;28;20086;-56
2023/08/26 02:44:26;;;;;;;9.27;6.00;;;15.10;99.90;;;;;;5122193;28;20498;-57
2023/08/26 02:46:52;;;;;;;11.15;5.68;;;15.00;99.90;;;;;;5123524;28;20474;-56
2023/08/26 02:49:17;;;;;;;10.38;5.90;;;14.90;99.90;;;;;;5121944;28;20506;-57
2023/08/26 02:51:43;;;;;;;11.70;5.60;;;14.90;99.90;;;;;;5123361;28;20061;-57
2023/08/26 02:54:09;;;;;;;9.68;6.18;;;14.90;99.90;;;;;;5122771;28;20036;-57
2023/08/26 02:56:34;;;;;;;10.77;6.50;;;14.90;99.90;;;;;;5105813;28;20063;-56
2023/08/26 02:59:00;;;;;;;11.65;5.63;;;14.90;99.90;;;;;;5100475;28;20056;-57
2023/08/26 03:01:30;;;;;;;10.90;6.38;;;14.80;99.90;;;;;;5100111;28;20032;-56
2023/08/26 03:03:56;;;;;;;11.63;6.25;;;14.70;99.90;;;;;;5102545;28;20058;-57
2023/08/26 03:06:22;;;;;;;11.55;5.72;;;14.80;99.90;;;;;;5101455;28;20126;-57
2023/08/26 03:08:47;;;;;;;10.20;5.75;;;14.60;99.90;;;;;;5100662;28;20048;-57
2023/08/26 03:11:13;;;;;;;11.95;6.28;;;14.70;99.90;;;;;;5102041;28;20158;-57
2023/08/26 03:13:39;;;;;;;8.43;5.70;;;14.50;99.90;;;;;;5100175;28;20072;-56
2023/08/26 03:16:09;;;;;;;8.90;5.55;;;14.60;99.90;;;;;;5102081;28;20040;-59
2023/08/26 03:18:35;;;;;;;9.48;5.70;;;14.60;99.90;;;;;;5100847;28;20063;-57
2023/08/26 03:21:05;;;;;;;10.95;5.20;;;14.60;99.90;;;;;;5101706;28;20040;-57
2023/08/26 03:23:31;;;;;;;11.13;4.75;;;14.60;99.90;;;;;;5099723;28;20071;-57
2023/08/26 03:25:56;;;;;;;10.05;5.55;;;14.50;99.90;;;;;;5102139;28;20039;-56
2023/08/26 03:28:22;;;;;;;8.95;5.20;;;14.60;99.90;;;;;;5101647;28;20051;-56
2023/08/26 03:30:48;;;;;;;10.07;5.70;;;14.60;99.90;;;;;;5101225;28;20152;-59
2023/08/26 03:33:13;;;;;;;8.32;4.82;;;14.60;99.90;;;;;;5101970;28;20035;-58
2023/08/26 03:35:39;;;;;;;8.05;4.97;;;14.50;99.90;;;;;;5100508;28;20065;-57
2023/08/26 03:38:06;;;;;;;7.63;4.93;;;14.60;99.90;;;;;;5101833;28;20048;-59
2023/08/26 03:40:32;;;;;;;9.85;5.05;;;14.60;99.90;;;;;;5100653;28;20058;-57
2023/08/26 03:42:58;;;;;;;7.40;4.60;;;14.50;99.90;;;;;;5101888;28;20044;-58
2023/08/26 03:45:26;;;;;;;7.30;4.45;;;14.60;99.90;;;;;;5099732;28;20043;-60
2023/08/26 03:47:52;;;;;;;7.82;4.10;;;14.60;99.90;;;;;;5101042;28;20438;-60
2023/08/26 03:50:17;;;;;;;8.55;4.40;;;14.60;99.90;;;;;;5101459;28;20036;-57
2023/08/26 03:52:43;;;;;;;7.60;4.57;;;14.60;99.90;;;;;;5100363;28;20032;-57
2023/08/26 03:55:09;;;;;;;7.57;4.32;;;14.60;99.90;;;;;;5101389;28;20071;-58
2023/08/26 03:57:34;;;;;;;7.40;4.13;;;14.60;99.90;;;;;;5100394;28;20055;-59
2023/08/26 04:00:00;;;;;;;8.23;4.90;;;14.70;99.90;;;;;;5101621;28;20083;-58
2023/08/26 04:02:26;;;;;;;8.57;4.78;;;14.70;99.90;;;;;;5100448;28;20115;-57
2023/08/26 04:04:51;;;;;;;7.82;4.15;;;14.70;99.90;;;;;;5100916;28;20040;-56
2023/08/26 04:07:17;;;;;;;7.63;4.28;;;14.70;99.90;;;;;;5101223;28;20112;-57
2023/08/26 04:09:43;;;;;;;10.20;4.38;;;14.70;99.90;;;;;;5099485;28;20056;-57
2023/08/26 04:12:09;;;;;;;8.68;4.43;;;14.80;99.90;;;;;;5101337;28;20044;-57
2023/08/26 04:14:34;;;;;;;7.85;4.68;;;14.80;99.90;;;;;;5100081;28;20047;-57
2023/08/26 04:17:03;;;;;;;7.60;4.38;;;14.70;99.90;;;;;;5101360;28;20047;-57
2023/08/26 04:19:30;;;;;;;7.90;4.72;;;14.80;99.90;;;;;;5098740;28;20064;-55
2023/08/26 04:22:01;;;;;;;8.02;4.68;;;14.80;99.90;;;;;;5100575;28;20052;-57
2023/08/26 04:24:27;;;;;;;8.35;4.50;;;14.80;99.90;;;;;;5099851;28;20047;-56
2023/08/26 04:26:53;;;;;;;8.20;4.97;;;14.80;99.90;;;;;;5099617;28;20051;-56
2023/08/26 04:29:18;;;;;;;9.52;4.63;;;14.70;99.90;;;;;;5100981;28;20067;-57
2023/08/26 04:31:44;;;;;;;8.13;5.03;;;14.80;99.90;;;;;;5098385;28;20055;-57
2023/08/26 04:34:11;;;;;;;10.80;4.88;;;14.80;99.90;;;;;;5081929;28;20044;-57
2023/08/26 04:36:37;;;;;;;8.48;4.45;;;14.80;99.90;;;;;;5099996;28;20047;-57
2023/08/26 04:39:10;;;;;;;8.95;4.75;;;14.90;99.90;;;;;;5100282;28;20088;-57
2023/08/26 04:41:37;;;;;;;8.75;4.40;;;15.00;99.90;;;;;;5100588;28;20051;-57
2023/08/26 04:44:04;;;;;;;8.18;4.75;;;15.00;99.90;;;;;;5099670;28;20596;-57
2023/08/26 04:46:31;;;;;;;9.02;4.63;;;15.00;99.90;;;;;;5100355;28;20048;-57
2023/08/26 04:48:57;;;;;;;8.75;4.20;;;15.00;99.90;;;;;;5099238;28;20119;-56
2023/08/26 04:51:22;;;;;;;11.10;4.97;;;15.00;99.90;;;;;;5100593;28;20126;-56
2023/08/26 04:53:48;;;;;;;8.85;4.95;;;15.10;99.90;;;;;;5098450;28;20055;-57
2023/08/26 04:56:15;;;;;;;7.72;4.57;;;15.10;99.90;;;;;;5099760;28;20050;-57
2023/08/26 04:58:40;;;;;;;8.20;4.35;;;15.10;99.90;;;;;;5100355;28;20051;-57
2023/08/26 05:01:06;;;;;;;10.52;5.28;;;15.10;99.90;;;;;;5099203;28;20044;-57
2023/08/26 05:03:32;;;;;;;8.75;4.43;;;15.20;99.90;;;;;;5100007;28;20040;-57
2023/08/26 05:05:57;;;;;;;7.45;4.85;;;15.10;99.90;;;;;;5098741;28;20047;-57
2023/08/26 05:08:23;;;;;;;7.95;4.88;;;15.10;99.90;;;;;;5100391;28;20043;-57
2023/08/26 05:10:49;;;;;;;8.15;4.75;;;15.10;99.90;;;;;;5099443;28;20447;-56
2023/08/26 05:13:14;;;;;;;7.60;4.95;;;15.20;99.90;;;;;;5099682;28;20108;-56
2023/08/26 05:15:40;;;;;;;9.63;5.10;;;15.10;99.90;;;;;;5098772;28;20044;-57
2023/08/26 05:18:06;;;;;;;10.10;5.00;;;15.00;99.90;;;;;;5097376;28;20458;-57
2023/08/26 05:20:32;;;;;;;7.75;4.65;;;15.00;99.90;;;;;;5099653;28;20032;-57
2023/08/26 05:22:58;;;;;;;7.57;4.47;;;15.10;99.90;;;;;;5097189;28;20046;-57
2023/08/26 05:25:24;;;;;;;8.73;5.78;;;15.00;99.90;;;;;;5100090;28;20040;-57
2023/08/26 05:27:49;;;;;;;7.90;5.32;;;15.00;99.90;;;;;;5099153;28;20050;-57
2023/08/26 05:30:15;;;;;;;9.52;5.82;;;15.10;99.90;;;;;;5099734;28;20032;-56
2023/08/26 05:32:41;;;;;;;9.00;4.93;;;15.00;99.90;;;;;;5099340;28;20043;-56
2023/08/26 05:35:07;;;;;;;9.18;5.47;;;15.10;99.90;;;;;;5098934;28;20072;-57
2023/08/26 05:37:32;;;;;;;9.18;4.80;;;14.90;99.90;;;;;;5099524;28;20058;-57
2023/08/26 05:39:58;;;;;;;9.70;4.78;;;15.00;99.90;;;;;;5098400;28;20126;-56
2023/08/26 05:42:23;;;;;;;10.18;4.68;;;15.00;99.90;;;;;;5099656;28;20085;-56
2023/08/26 05:44:49;;;;;;;9.48;4.40;;;14.90;99.90;;;;;;5098432;28;20050;-56
2023/08/26 05:47:15;;;;;;;8.38;5.05;;;14.90;99.90;;;;;;5099562;28;20379;-57
2023/08/26 05:49:40;;;;;;;9.75;5.18;;;14.80;99.90;;;;;;5098810;28;20124;-57
2023/08/26 05:52:06;;;;;;;9.52;5.38;;;14.90;99.90;;;;;;5098598;28;20033;-57
2023/08/26 05:54:32;;;;;;;7.72;4.97;;;14.90;99.90;;;;;;5099482;28;20043;-56
2023/08/26 05:56:57;;;;;;;8.38;5.10;;;15.00;99.90;;;;;;5115872;28;20051;-57
2023/08/26 05:59:23;;;;;;;8.35;4.47;;;14.90;99.90;;;;;;5119985;28;20071;-56
2023/08/26 06:01:49;;;;;;;7.70;4.60;;;15.00;99.90;;;;;;5118597;28;20402;-56
2023/08/26 06:04:14;;;;;;;9.15;5.10;;;15.00;99.90;;;;;;5120044;28;20118;-56
2023/08/26 06:06:40;;;;;;;10.35;4.82;;;15.00;99.90;;;;;;5117781;28;20050;-56
2023/08/26 06:09:05;;;;;;;9.70;5.00;;;15.10;99.90;;;;;;5117345;28;20055;-56
2023/08/26 06:11:31;;;;;;;7.93;4.45;;;15.20;99.90;;;;;;5119696;28;20285;-56
2023/08/26 06:13:58;;;;;;;9.20;5.00;;;15.20;99.90;;;;;;5118614;28;20040;-56
2023/08/26 06:16:24;;;;;;;9.23;4.93;;;15.20;99.90;;;;;;5117012;28;20049;-56
2023/08/26 06:18:49;;;;;;;8.10;4.40;;;15.20;99.90;;;;;;5114376;28;20046;-57
2023/08/26 06:21:15;;;;;;;11.00;4.85;;;15.30;99.90;;;;;;5116000;28;20047;-56
2023/08/26 06:23:41;;;;;;;7.15;4.60;;;15.20;99.90;;;;;;5115048;28;20043;-56
2023/08/26 06:26:07;;;;;;;12.43;4.70;;;15.30;99.90;;;;;;5115197;28;20094;-56
2023/08/26 06:28:32;;;;;;;7.50;4.07;;;15.30;99.90;;;;;;5106378;28;20050;-56
2023/08/26 06:30:59;;;;;;;7.57;4.03;;;15.40;99.90;;;;;;5094501;28;20131;-56
2023/08/26 06:33:25;;;;;;;9.85;4.38;;;15.40;99.90;;;;;;5095119;28;20368;-56
2023/08/26 06:35:51;;;;;;;8.38;4.28;;;15.40;99.90;;;;;;5093723;28;20048;-56
2023/08/26 06:38:17;;;;;;;7.15;3.88;;;15.50;99.90;;;;;;5095313;28;20100;-56
2023/08/26 06:40:42;;;;;;;6.97;3.97;;;15.50;99.90;;;;;;5094040;28;20119;-56
2023/08/26 06:43:08;;;;;;;6.85;3.88;;;15.50;99.90;;;;;;5094839;28;20071;-56
2023/08/26 06:45:34;;;;;;;6.90;3.42;;;15.40;99.90;;;;;;5095235;28;20096;-56
2023/08/26 06:48:00;;;;;;;9.43;3.67;;;15.40;99.90;;;;;;5093726;28;20055;-56
2023/08/26 06:50:26;;;;;;;7.93;3.20;;;15.50;99.90;;;;;;5094869;28;20044;-56
2023/08/26 06:52:52;;;;;;;7.45;2.80;;;15.50;99.90;;;;;;5093226;28;20081;-56
2023/08/26 06:55:18;;;;;;;5.05;2.72;;;15.60;99.90;;;;;;5100257;28;20035;-55
2023/08/26 06:57:44;;;;;;;6.80;2.92;;;15.70;99.90;;;;;;5100460;28;20051;-56
2023/08/26 07:00:12;;;;;;;5.85;2.85;;;15.70;99.90;;;;;;5104227;28;20037;-56
2023/08/26 07:02:38;;;;;;;5.30;2.30;;;15.80;99.90;;;;;;5117893;28;20086;-56
2023/08/26 07:05:04;;;;;;;7.88;2.33;;;15.80;99.90;;;;;;5117849;28;20035;-56
2023/08/26 07:07:29;;;;;;;5.10;2.17;;;15.90;99.90;;;;;;5118815;28;20054;-56
2023/08/26 07:09:55;;;;;;;7.28;2.83;;;15.90;99.90;;;;;;5111268;28;20108;-57
2023/08/26 07:12:21;;;;;;;7.53;2.50;;;15.90;99.90;;;;;;5117406;28;20047;-57
2023/08/26 07:14:47;;;;;;;5.38;2.33;;;16.00;99.90;;;;;;5117978;28;20044;-57
2023/08/26 07:17:15;;;;;;;6.07;2.20;;;16.10;99.90;;;;;;5118449;28;20039;-57
2023/08/26 07:19:41;;;;;;;6.60;2.78;;;16.20;99.90;;;;;;5118236;27;20071;-56
2023/08/26 07:22:07;;;;;;;6.15;2.38;;;16.30;99.90;;;;;;5117394;28;20054;-56
2023/08/26 07:24:33;;;;;;;7.75;2.45;;;16.30;99.90;;;;;;5118440;28;20040;-57
2023/08/26 07:26:58;;;;;;;6.55;2.88;;;16.20;99.90;;;;;;5117193;28;20047;-57
2023/08/26 07:29:24;;;;;;;7.53;3.38;;;16.40;99.90;;;;;;5118099;28;20044;-58
2023/08/26 07:31:50;;;;;;;7.15;3.88;;;16.40;99.90;;;;;;5117084;28;20040;-57
2023/08/26 07:34:15;;;;;;;8.48;5.03;;;16.50;99.90;;;;;;5118508;28;20048;-58
2023/08/26 07:36:41;;;;;;;9.85;5.75;;;16.70;99.90;;;;;;5117963;28;20032;-56
2023/08/26 07:39:06;;;;;;;11.38;6.30;;;16.80;99.90;;;;;;5117573;28;20051;-57
2023/08/26 07:41:32;;;;;;;12.85;7.28;;;16.90;99.90;;;;;;5118023;28;20040;-57
2023/08/26 07:43:58;;;;;;;12.70;7.72;;;16.80;99.90;;;;;;5116953;28;20173;-57
2023/08/26 07:46:23;;;;;;;11.95;7.32;;;16.90;99.90;;;;;;5118277;27;20039;-58
2023/08/26 07:48:49;;;;;;;12.57;8.52;;;16.70;99.90;;;;;;5098594;27;20032;-56
2023/08/26 07:51:15;;;;;;;10.88;7.97;;;16.80;99.90;;;;;;5097927;28;20036;-57
2023/08/26 07:53:41;;;;;;;14.35;9.52;;;16.80;99.90;;;;;;5099320;28;20063;-57
2023/08/26 07:56:07;;;;;;;14.35;10.27;;;16.80;99.90;;;;;;5111155;28;20043;-57
2023/08/26 07:58:33;;;;;;;18.17;11.18;;;17.10;99.90;;;;;;5116139;28;20123;-55
2023/08/26 08:00:59;;;;;;;14.80;12.18;;;17.20;99.90;;;;;;5116858;28;20079;-57
2023/08/26 08:03:25;;;;;;;17.42;12.50;;;17.20;99.90;;;;;;5117509;28;20058;-58
2023/08/26 08:05:50;;;;;;;16.83;11.75;;;17.30;99.90;;;;;;5116183;28;20075;-57
2023/08/26 08:08:16;;;;;;;18.98;13.43;;;17.50;99.90;;;;;;5117728;28;20086;-58
2023/08/26 08:10:42;;;;;;;18.70;12.30;;;17.50;99.90;;;;;;5115596;28;20059;-57
2023/08/26 08:13:08;;;;;;;18.40;13.23;;;17.70;99.90;;;;;;5116294;28;20070;-58
2023/08/26 08:15:35;;;;;;;15.88;12.27;;;17.60;99.90;;;;;;5117822;28;20122;-58
2023/08/26 08:18:02;;;;;;;17.30;13.32;;;17.80;99.90;;;;;;5115961;28;20160;-58
2023/08/26 08:20:30;;;;;;;18.38;12.93;;;17.80;99.90;;;;;;5117374;28;20085;-57
2023/08/26 08:22:56;;;;;;;16.13;12.25;;;18.00;99.90;;;;;;5113704;28;20039;-58
2023/08/26 08:25:22;;;;;;;17.35;12.18;;;17.90;99.90;;;;;;5109100;28;20044;-58
2023/08/26 08:27:48;;;;;;;16.05;11.88;;;18.00;99.90;;;;;;5103814;28;20548;-58
2023/08/26 08:30:14;;;;;;;16.95;11.48;;;18.30;99.90;;;;;;5100662;28;20054;-58
2023/08/26 08:32:40;;;;;;;13.88;11.25;;;18.50;99.90;;;;;;5099043;28;20051;-58
2023/08/26 08:35:06;;;;;;;15.73;11.05;;;18.50;99.90;;;;;;5097373;28;20422;-58
2023/08/26 08:37:32;;;;;;;17.20;10.93;;;18.30;99.90;;;;;;5100045;28;20040;-58
2023/08/26 08:39:59;;;;;;;15.38;10.70;;;18.20;99.90;;;;;;5099624;28;20051;-58
2023/08/26 08:42:25;;;;;;;15.52;10.75;;;18.40;99.90;;;;;;5100037;28;20080;-60
2023/08/26 08:44:51;;;;;;;14.80;10.57;;;18.20;99.90;;;;;;5099432;28;20044;-57
2023/08/26 08:47:16;;;;;;;15.93;10.68;;;18.50;99.90;;;;;;5100642;28;20044;-58
2023/08/26 08:49:46;;;;;;;14.90;11.38;;;18.40;99.90;;;;;;5099985;28;20047;-58
2023/08/26 08:52:11;;;;;;;12.77;10.63;;;18.40;99.90;;;;;;5099548;28;20390;-58
2023/08/26 08:54:37;;;;;;;17.30;11.05;;;18.50;99.90;;;;;;5100211;28;20068;-58
2023/08/26 08:57:04;;;;;;;15.15;10.60;;;18.60;99.90;;;;;;5119334;28;20366;-58
2023/08/26 08:59:34;;;;;;;14.30;10.75;;;18.50;99.90;;;;;;5120717;28;20065;-57
2023/08/26 09:02:01;;;;;;;14.30;11.13;;;18.40;99.90;;;;;;5119969;28;20039;-57
2023/08/26 09:04:28;;;;;;;14.68;10.70;;;18.30;99.90;;;;;;5118937;28;20054;-57
2023/08/26 09:06:54;;;;;;;14.35;9.88;;;18.40;99.90;;;;;;5120117;28;20043;-57
2023/08/26 09:09:21;;;;;;;14.10;11.38;;;18.60;99.90;;;;;;5119266;28;20056;-58
2023/08/26 09:11:48;;;;;;;13.50;10.60;;;18.60;99.90;;;;;;5120370;28;20063;-59
2023/08/26 09:14:14;;;;;;;15.75;9.57;;;18.70;99.90;;;;;;5119283;28;20048;-57
2023/08/26 09:16:41;;;;;;;15.63;10.13;;;18.80;99.90;;;;;;5119205;28;20079;-57
2023/08/26 09:19:09;;;;;;;16.83;9.70;;;18.80;99.80;;;;;;5118570;28;20511;-57
2023/08/26 09:21:43;;;;;;;15.05;10.60;;;18.90;98.80;;;;;;5120097;28;20118;-58
2023/08/26 09:24:13;;;;;;;13.85;10.40;;;18.80;98.50;;;;;;5119719;28;20055;-57
2023/08/26 09:26:39;;;;;;;13.50;9.65;;;18.80;99.90;;;;;;5119292;28;20051;-57
2023/08/26 09:29:17;;;;;;;15.05;10.52;;;18.60;99.60;;;;;;5118524;28;20035;-58
2023/08/26 09:31:51;;;;;;;14.55;9.95;;;18.60;99.90;;;;;;5119455;28;20386;-60
2023/08/26 09:34:31;;;;;;;20.00;11.60;;;18.30;99.90;;;;;;5119922;28;20047;-65
2023/08/26 09:36:57;;;;;;;16.98;12.40;;;18.00;99.90;;;;;;5120183;28;20035;-65
2023/08/26 09:39:22;;;;;;;17.10;12.45;;;17.80;99.90;;;;;;5118607;28;20255;-67
2023/08/26 09:41:48;;;;;;;18.45;12.73;;;17.60;99.90;;;;;;5119863;28;20631;-65
2023/08/26 09:44:18;;;;;;;19.02;13.20;;;17.50;99.90;;;;;;5118619;28;20047;-67
2023/08/26 09:46:47;;;;;;;20.45;13.98;;;17.40;99.90;;;;;;5119006;28;20504;-65
2023/08/26 09:49:14;;;;;;;17.20;13.30;;;17.40;99.90;;;;;;5118700;28;20055;-65
2023/08/26 09:51:46;;;;;;;19.08;13.50;;;17.20;99.90;;;;;;5119585;28;20052;-65
2023/08/26 09:54:16;;;;;;;18.27;13.07;;;17.10;99.90;;;;;;5120047;28;20261;-67
2023/08/26 09:56:42;;;;;;;18.73;13.45;;;17.10;99.90;;;;;;5099179;28;20055;-66
2023/08/26 09:59:08;;;;;;;19.25;13.40;;;17.20;99.90;;;;;;5090084;28;20046;-62
2023/08/26 10:01:35;;;;;;;17.48;12.55;;;17.00;99.90;;;;;;5082115;28;20166;-61
2023/08/26 10:04:08;;;;;;;17.25;12.70;;;17.00;99.90;;;;;;5084476;28;20036;-60
2023/08/26 10:06:52;;;;;;;19.55;12.13;;;17.00;99.90;;;;;;5084189;28;20055;-59
2023/08/26 10:10:19;;;;;;;9.75;6.50;;;16.80;99.90;;;;;;5083661;28;20052;-59
2023/08/26 10:12:48;;;;;;;6.65;3.08;;;16.40;99.90;;;;;;5025907;28;20124;-62
2023/08/26 10:15:17;;;;;;;5.60;2.38;;;16.10;99.90;;;;;;5083320;28;20043;-61
2023/08/26 10:17:49;;;;;;;5.80;2.45;;;16.00;99.90;;;;;;5084207;28;20040;-60
2023/08/26 10:20:15;;;;;;;;;;;15.90;99.90;;;;;;5085015;28;20513;-59
2023/08/26 10:22:41;;;;;;;4.55;1.98;;;15.70;99.90;;;;;;5082228;28;19924;-59
2023/08/26 10:25:09;;;;;;;5.75;2.40;;;15.70;99.90;;;;;;5085451;28;20032;-59
2023/08/26 10:27:36;;;;;;;6.57;2.20;;;15.70;99.90;;;;;;5083298;28;20052;-59
2023/08/26 10:30:03;;;;;;;4.80;2.20;;;15.60;99.90;;;;;;5083758;28;20407;-60
2023/08/26 10:32:29;;;;;;;5.82;2.85;;;15.80;99.90;;;;;;5088282;28;20048;-59
2023/08/26 10:34:56;;;;;;;5.50;2.83;;;15.80;99.90;;;;;;5092573;28;20036;-59
2023/08/26 10:37:31;;;;;;;7.40;3.30;;;15.80;99.90;;;;;;5110557;28;20051;-59
2023/08/26 10:40:03;;;;;;;5.60;2.63;;;15.80;99.90;;;;;;5112129;28;20061;-58
2023/08/26 10:42:29;;;;;;;5.78;2.92;;;15.90;99.90;;;;;;5121857;28;20044;-58
2023/08/26 10:44:56;;;;;;;6.07;2.97;;;16.00;99.90;;;;;;5122515;28;20095;-58
2023/08/26 10:47:38;;;;;;;7.32;3.28;;;16.20;99.90;;;;;;5106958;28;20090;-58
2023/08/26 10:50:18;;;;;;;;;;;16.30;99.90;;;;;;5102208;28;20052;-58
2023/08/26 10:52:44;;;;;;;6.90;3.50;;;16.40;99.90;;;;;;5101329;28;20134;-58
2023/08/26 10:55:22;;;;;;;6.47;3.45;;;16.70;99.90;;;;;;5107131;28;20036;-58
2023/08/26 10:58:06;;;;;;;6.32;3.83;;;16.90;99.90;;;;;;5121191;28;20047;-57
2023/08/26 11:00:33;;;;;;;7.05;3.78;;;17.20;99.90;;;;;;5121944;28;20126;-58
2023/08/26 11:03:00;;;;;;;7.35;4.00;;;17.30;99.90;;;;;;5123005;28;20047;-58
2023/08/26 11:05:25;;;;;;;9.00;3.92;;;17.50;99.90;;;;;;5121425;28;20042;-58
2023/08/26 11:07:51;;;;;;;7.03;4.30;;;17.90;99.90;;;;;;5122714;28;20051;-57
2023/08/26 11:10:28;;;;;;;7.55;4.07;;;17.90;99.90;;;;;;5120581;28;20095;-58
2023/08/26 11:12:54;;;;;;;7.03;3.80;;;17.80;99.90;;;;;;5121559;28;20107;-57
2023/08/26 11:15:20;;;;;;;8.88;3.63;;;17.90;99.90;;;;;;5122459;28;20077;-58
2023/08/26 11:17:47;;;;;;;6.18;3.30;;;18.20;99.90;;;;;;5121569;28;20056;-58
2023/08/26 11:20:16;;;;;;;5.70;3.10;;;18.10;99.90;;;;;;5122362;28;20091;-58
2023/08/26 11:22:42;;;;;;;5.40;2.63;;;18.10;99.90;;;;;;5120962;28;20043;-58
2023/08/26 11:25:11;;;;;;;6.20;3.00;;;18.30;99.90;;;;;;5122456;28;20678;-58
2023/08/26 11:27:37;;;;;;;5.72;2.47;;;18.40;99.90;;;;;;5121201;28;20094;-58
2023/08/26 11:30:10;;;;;;;5.90;3.05;;;18.50;99.90;;;;;;5122225;28;20040;-58
2023/08/26 11:32:36;;;;;;;8.75;4.05;;;18.60;99.90;;;;;;5120791;28;20074;-58
2023/08/26 11:35:04;;;;;;;6.88;3.83;;;18.80;99.90;;;;;;5119899;28;20092;-58
2023/08/26 11:37:56;;;;;;;7.35;4.38;;;18.80;99.90;;;;;;5121778;28;20035;-58
2023/08/26 11:40:23;;;;;;;7.20;4.35;;;18.50;99.90;;;;;;5104937;28;20087;-58
2023/08/26 11:42:48;;;;;;;8.95;5.00;;;18.70;99.90;;;;;;5121797;28;20052;-58
2023/08/26 11:45:14;;;;;;;8.80;4.70;;;18.70;99.90;;;;;;5121638;28;20104;-58
2023/08/26 11:47:40;;;;;;;8.35;5.10;;;18.80;99.90;;;;;;5121145;28;20048;-58
2023/08/26 11:50:08;;;;;;;9.77;5.80;;;19.00;99.90;;;;;;5121669;28;20043;-58
2023/08/26 11:52:38;;;;;;;9.25;5.57;;;19.00;97.90;;;;;;5120778;28;20035;-58
2023/08/26 11:55:06;;;;;;;8.27;5.22;;;19.20;98.30;;;;;;5118448;28;20036;-57
2023/08/26 11:57:41;;;;;;;8.45;5.20;;;19.50;97.10;;;;;;5100211;28;20040;-58
2023/08/26 12:00:07;;;;;;;9.43;5.60;;;19.70;99.00;;;;;;5101058;28;20074;-57
2023/08/26 12:02:33;;;;;;;9.25;5.38;;;19.70;92.20;;;;;;5100729;28;20052;-57
2023/08/26 12:04:58;;;;;;;8.98;4.85;;;20.10;96.40;;;;;;5098839;28;20056;-58
2023/08/26 12:07:30;;;;;;;5.70;2.92;;;20.20;91.80;;;;;;5101253;28;20086;-57
2023/08/26 12:09:57;;;;;;;6.18;2.00;;;20.20;84.80;;;;;;5099827;28;20056;-55
2023/08/26 12:12:24;;;;;;;4.82;1.60;;;19.90;44.30;;;;;;5101149;28;20059;-58
2023/08/26 12:14:50;;;;;;;3.67;1.10;;;19.50;52.00;;;;;;5100073;28;20064;-58
2023/08/26 12:17:16;;;;;;;3.83;1.13;;;19.20;48.10;;;;;;5100657;28;20062;-57
2023/08/26 12:19:42;;;;;;;4.63;1.40;;;19.00;57.80;;;;;;5100882;28;20042;-57
2023/08/26 12:22:09;;;;;;;4.65;1.27;;;19.10;65.50;;;;;;5100014;28;20175;-58
2023/08/26 12:24:37;;;;;;;4.40;1.23;;;19.10;65.90;;;;;;5101011;28;20052;-58
2023/08/26 12:27:10;;;;;;;4.22;1.20;;;19.10;60.70;;;;;;5099619;28;20044;-58
2023/08/26 12:29:36;;;;;;;4.63;1.15;;;19.10;61.70;;;;;;5100873;28;20048;-57
2023/08/26 12:32:02;;;;;;;5.00;1.48;;;19.00;60.30;;;;;;5100101;28;20050;-57
2023/08/26 12:34:28;;;;;;;3.72;1.10;;;18.90;60.50;;;;;;5100401;28;20064;-58
2023/08/26 12:36:55;;;;;;;4.53;1.30;;;19.00;64.70;;;;;;5100283;28;20064;-60
2023/08/26 12:39:24;;;;;;;5.57;1.48;;;19.00;56.50;;;;;;5099211;28;20131;-57